Terminal Aerodrome Forecast
Issued by NWS

Home | Current Version | Previous Version | Text Only | Print | Product List | Glossary On
Versions: 1 2 3 4 5 6 7 8 9 10 11 12 13 14 15 16 17 18 19 20 21 22 23 24 25 26 27 28 29
000
FTUS41 KOKX 230500
TAFGON
TAF
KGON 230532Z 2306/2406 VRB04KT 3SM BR BKN012
      TEMPO 2306/2310 1SM BR BKN035
     FM231000 30010G17KT P6SM BKN035
     FM231600 31016G25KT P6SM SCT040
     FM231900 32020G30KT P6SM SCT050
     FM240100 32014G22KT P6SM SKC=

USA.gov is the U.S. government's official web portal to all federal, state and local government web resources and services.